createdAt,value
2023-03-13T00:02:26.945Z,7.87
2023-03-13T00:04:58.079Z,8.20
2023-03-13T00:07:27.486Z,8.12
2023-03-13T00:09:56.711Z,8.12
2023-03-13T00:12:30.014Z,8.12
2023-03-13T00:14:59.405Z,8.05
2023-03-13T00:17:29.336Z,8.15
2023-03-13T00:19:58.956Z,8.11
2023-03-13T00:22:28.268Z,8.09
2023-03-13T00:24:59.497Z,8.23
2023-03-13T00:27:33.899Z,8.11
2023-03-13T00:30:03.957Z,7.92
2023-03-13T00:32:33.405Z,8.17
2023-03-13T00:35:03.318Z,7.00
2023-03-13T00:37:33.548Z,8.27
2023-03-13T00:40:04.638Z,8.26
2023-03-13T00:42:37.330Z,8.18
2023-03-13T00:45:07.717Z,8.32
2023-03-13T00:47:36.840Z,8.26
2023-03-13T00:50:06.908Z,8.20
2023-03-13T00:52:38.650Z,8.28
2023-03-13T00:55:11.298Z,8.16
2023-03-13T00:57:41.978Z,8.49
2023-03-13T01:00:12.547Z,8.34
2023-03-13T01:02:45.082Z,8.31
2023-03-13T01:05:17.246Z,8.35
2023-03-13T01:07:47.245Z,8.59
2023-03-13T01:10:17.066Z,8.46
2023-03-13T01:12:48.469Z,8.62
2023-03-13T01:15:19.818Z,8.48
2023-03-13T01:17:51.370Z,8.67
2023-03-13T01:20:20.986Z,8.69
2023-03-13T01:22:50.291Z,7.62
2023-03-13T01:25:19.455Z,8.61
2023-03-13T01:27:51.057Z,8.76
2023-03-13T01:30:20.972Z,8.89
2023-03-13T01:32:51.817Z,8.83
2023-03-13T01:35:21.259Z,8.78
2023-03-13T01:37:53.380Z,8.51
2023-03-13T01:40:22.962Z,8.87
2023-03-13T01:42:59.408Z,8.81
2023-03-13T01:46:01.233Z,8.86
2023-03-13T01:48:44.926Z,8.83
2023-03-13T01:51:24.036Z,8.54
2023-03-13T01:54:02.600Z,8.89
2023-03-13T01:56:38.714Z,9.01
2023-03-13T01:59:14.877Z,8.92
2023-03-13T02:01:47.612Z,8.73
2023-03-13T02:04:21.145Z,8.96
2023-03-13T02:06:56.213Z,8.67
2023-03-13T02:09:33.512Z,8.88
2023-03-13T02:12:08.616Z,9.07
2023-03-13T02:14:40.708Z,9.00
2023-03-13T02:17:10.301Z,8.99
2023-03-13T02:19:44.063Z,8.95
2023-03-13T02:22:23.189Z,8.99
2023-03-13T02:25:02.360Z,9.15
2023-03-13T02:27:33.236Z,9.11
2023-03-13T02:30:04.356Z,8.73
2023-03-13T02:32:34.044Z,9.05
2023-03-13T02:35:08.891Z,8.67
2023-03-13T02:37:39.127Z,9.17
2023-03-13T02:40:15.170Z,8.92
2023-03-13T02:42:47.669Z,9.08
2023-03-13T02:45:19.127Z,8.94
2023-03-13T02:47:49.014Z,9.13
2023-03-13T02:50:19.261Z,9.19
2023-03-13T02:52:51.380Z,9.29
2023-03-13T02:55:26.339Z,9.04
2023-03-13T02:57:57.189Z,9.39
2023-03-13T03:00:27.813Z,9.38
2023-03-13T03:02:58.067Z,9.75
2023-03-13T03:05:27.375Z,10.07
2023-03-13T03:07:56.960Z,9.79
2023-03-13T03:10:29.457Z,10.02
2023-03-13T03:13:00.578Z,10.13
2023-03-13T03:15:30.239Z,10.08
2023-03-13T03:18:00.300Z,10.13
2023-03-13T03:20:29.591Z,10.47
2023-03-13T03:22:59.419Z,10.18
2023-03-13T03:25:29.431Z,10.44
2023-03-13T03:28:00.314Z,10.33
2023-03-13T03:30:30.814Z,10.30
2023-03-13T03:33:00.522Z,10.48
2023-03-13T03:35:29.805Z,10.41
2023-03-13T03:37:59.759Z,10.75
2023-03-13T03:40:30.372Z,10.88
2023-03-13T03:43:01.549Z,10.53
2023-03-13T03:45:31.191Z,10.60
2023-03-13T03:48:00.850Z,10.52
2023-03-13T03:50:30.504Z,10.66
2023-03-13T03:53:03.603Z,10.62
2023-03-13T03:55:35.054Z,10.35
2023-03-13T03:58:07.098Z,10.61
2023-03-13T04:00:58.416Z,10.42
2023-03-13T04:03:28.304Z,10.53
2023-03-13T04:05:58.602Z,10.40
2023-03-13T04:08:28.312Z,10.31
2023-03-13T04:10:57.565Z,10.38
2023-03-13T04:13:29.801Z,10.38
2023-03-13T04:16:01.332Z,9.40
2023-03-13T04:18:30.733Z,10.57
2023-03-13T04:21:03.916Z,10.20
2023-03-13T04:23:39.280Z,10.42
2023-03-13T04:26:10.864Z,10.27
2023-03-13T04:28:43.664Z,10.28
2023-03-13T04:31:16.557Z,10.34
2023-03-13T04:33:58.392Z,10.24
2023-03-13T04:36:43.705Z,10.59
2023-03-13T04:39:26.725Z,10.43
2023-03-13T04:42:12.582Z,10.30
2023-03-13T04:44:58.564Z,10.52
2023-03-13T04:47:47.753Z,9.51
2023-03-13T04:50:38.349Z,10.60
2023-03-13T04:53:36.934Z,10.46
2023-03-13T04:56:41.098Z,10.42
2023-03-13T04:59:27.788Z,10.44
2023-03-13T05:02:22.663Z,10.36
2023-03-13T05:05:21.836Z,10.23
2023-03-13T05:08:00.484Z,10.43
2023-03-13T05:10:48.570Z,10.64
2023-03-13T05:13:36.292Z,10.51
2023-03-13T05:16:18.674Z,10.56
2023-03-13T05:19:18.797Z,10.59
2023-03-13T05:22:03.168Z,10.79
2023-03-13T05:24:50.787Z,10.92
2023-03-13T05:27:49.545Z,10.81
2023-03-13T05:30:51.228Z,10.75
2023-03-13T05:33:38.529Z,10.67
2023-03-13T05:36:24.287Z,10.77
2023-03-13T05:39:20.242Z,10.75
2023-03-13T05:41:49.973Z,10.79
2023-03-13T05:44:54.616Z,10.94
2023-03-13T05:47:44.443Z,10.86
2023-03-13T05:50:31.652Z,10.89
2023-03-13T05:53:20.356Z,10.96
2023-03-13T05:56:07.997Z,10.89
2023-03-13T05:58:52.186Z,9.95
2023-03-13T06:01:56.985Z,10.84
2023-03-13T06:04:32.305Z,10.94
2023-03-13T06:07:01.621Z,10.82
2023-03-13T06:09:34.330Z,10.83
2023-03-13T06:12:03.895Z,10.78
2023-03-13T06:14:33.217Z,10.72
2023-03-13T06:17:20.849Z,10.90
2023-03-13T06:19:52.350Z,10.83
2023-03-13T06:22:21.411Z,10.91
2023-03-13T06:24:52.032Z,11.01
2023-03-13T06:27:21.104Z,10.92
2023-03-13T06:29:50.760Z,11.12
2023-03-13T06:32:20.769Z,9.95
2023-03-13T06:34:53.580Z,10.94
2023-03-13T06:37:23.331Z,10.84
2023-03-13T06:39:54.713Z,10.87
2023-03-13T06:42:24.197Z,10.74
2023-03-13T06:44:53.916Z,10.86
2023-03-13T06:47:24.012Z,10.74
2023-03-13T06:49:53.958Z,9.53
2023-03-13T06:52:37.447Z,10.46
2023-03-13T06:55:13.593Z,10.51
2023-03-13T06:57:42.889Z,10.37
2023-03-13T07:00:12.971Z,10.41
2023-03-13T07:02:42.282Z,10.24
2023-03-13T07:05:14.759Z,10.15
2023-03-13T07:07:44.587Z,10.32
2023-03-13T07:10:15.196Z,10.40
2023-03-13T07:12:44.737Z,10.40
2023-03-13T07:15:14.052Z,10.48
2023-03-13T07:17:43.459Z,9.19
2023-03-13T07:20:15.273Z,10.48
2023-03-13T07:22:45.409Z,10.53
2023-03-13T07:25:15.804Z,10.51
2023-03-13T07:27:47.072Z,10.46
2023-03-13T07:30:16.643Z,10.35
2023-03-13T07:32:45.741Z,10.44
2023-03-13T07:35:15.023Z,10.53
2023-03-13T07:37:44.099Z,10.91
2023-03-13T07:40:17.991Z,9.67
2023-03-13T07:42:49.835Z,10.62
2023-03-13T07:45:19.336Z,10.91
2023-03-13T07:47:48.384Z,10.84
2023-03-13T07:50:20.314Z,10.71
2023-03-13T07:52:49.511Z,11.02
2023-03-13T07:55:54.781Z,10.91
2023-03-13T07:58:24.667Z,11.05
2023-03-13T08:00:54.372Z,11.12
2023-03-13T08:03:24.656Z,11.18
2023-03-13T08:06:01.140Z,11.15
2023-03-13T08:08:31.250Z,11.26
2023-03-13T08:11:06.816Z,11.31
2023-03-13T08:13:36.751Z,11.24
2023-03-13T08:16:07.870Z,11.04
2023-03-13T08:18:38.434Z,11.05
2023-03-13T08:21:09.207Z,11.01
2023-03-13T08:23:38.784Z,11.27
2023-03-13T08:26:13.681Z,11.16
2023-03-13T08:28:44.095Z,9.49
2023-03-13T08:31:16.225Z,11.07
2023-03-13T08:33:47.068Z,11.09
2023-03-13T08:36:18.700Z,11.15
2023-03-13T08:38:49.185Z,11.27
2023-03-13T08:41:22.161Z,11.44
2023-03-13T08:43:53.745Z,11.43
2023-03-13T08:46:24.517Z,11.68
2023-03-13T08:48:55.597Z,11.78
2023-03-13T08:51:26.312Z,11.86
2023-03-13T08:53:57.053Z,11.97
2023-03-13T08:56:30.427Z,12.07
2023-03-13T08:59:01.072Z,12.36
2023-03-13T09:01:32.429Z,12.74
2023-03-13T09:04:04.997Z,12.81
2023-03-13T09:06:37.721Z,12.56
2023-03-13T09:09:08.170Z,12.39
2023-03-13T09:11:39.743Z,12.86
2023-03-13T09:14:09.956Z,12.89
2023-03-13T09:16:41.692Z,12.76
2023-03-13T09:19:11.122Z,12.96
2023-03-13T09:21:45.545Z,12.81
2023-03-13T09:24:18.574Z,12.96
2023-03-13T09:27:01.360Z,13.00
2023-03-13T09:29:33.789Z,12.92
2023-03-13T09:32:04.066Z,12.96
2023-03-13T09:34:33.296Z,13.09
2023-03-13T09:37:02.545Z,13.02
2023-03-13T09:39:31.739Z,13.02
2023-03-13T09:42:11.876Z,13.23
2023-03-13T09:44:48.470Z,13.34
2023-03-13T09:47:24.611Z,13.34
2023-03-13T09:49:56.990Z,13.02
2023-03-13T09:52:28.122Z,13.38
2023-03-13T09:55:02.047Z,13.35
2023-03-13T09:57:36.881Z,13.44
2023-03-13T10:00:12.927Z,13.20
2023-03-13T10:02:47.262Z,13.21
2023-03-13T10:05:20.643Z,13.26
2023-03-13T10:08:02.149Z,13.37
2023-03-13T10:10:44.904Z,13.62
2023-03-13T10:13:24.325Z,14.08
2023-03-13T10:15:58.222Z,13.77
2023-03-13T10:18:28.261Z,13.67
2023-03-13T10:21:01.556Z,13.41
2023-03-13T10:23:36.697Z,13.82
2023-03-13T10:26:07.230Z,13.50
2023-03-13T10:28:40.076Z,13.71
2023-03-13T10:31:18.977Z,13.65
2023-03-13T10:33:48.642Z,13.82
2023-03-13T10:36:18.056Z,13.82
2023-03-13T10:38:50.137Z,14.14
2023-03-13T10:41:31.112Z,14.19
2023-03-13T10:44:05.392Z,13.42
2023-03-13T10:46:37.182Z,13.94
2023-03-13T10:49:16.196Z,13.83
2023-03-13T10:51:51.420Z,13.72
2023-03-13T10:54:24.847Z,13.45
2023-03-13T10:57:10.055Z,13.77
2023-03-13T10:59:45.792Z,13.99
2023-03-13T11:02:24.301Z,13.73
2023-03-13T11:04:54.664Z,13.23
2023-03-13T11:07:29.838Z,14.24
2023-03-13T11:10:00.702Z,14.29
2023-03-13T11:12:30.244Z,14.53
2023-03-13T11:15:02.514Z,14.18
2023-03-13T11:17:38.134Z,14.30
2023-03-13T11:20:16.939Z,14.33
2023-03-13T11:22:53.388Z,14.18
2023-03-13T11:25:27.082Z,14.69
2023-03-13T11:28:33.506Z,14.40
2023-03-13T11:31:11.298Z,14.72
2023-03-13T11:33:53.238Z,14.76
2023-03-13T11:36:28.781Z,14.60
2023-03-13T11:39:07.453Z,14.88
2023-03-13T11:41:56.666Z,15.05
2023-03-13T11:44:32.418Z,15.23
2023-03-13T11:47:19.893Z,15.31
2023-03-13T11:50:15.711Z,15.12
2023-03-13T11:52:59.839Z,15.49
2023-03-13T11:55:39.058Z,15.62
2023-03-13T11:58:43.597Z,15.26
2023-03-13T12:01:16.384Z,15.41
2023-03-13T12:03:57.916Z,15.22
2023-03-13T12:06:33.044Z,15.33
2023-03-13T12:09:12.534Z,15.24
2023-03-13T12:11:55.458Z,15.10
2023-03-13T12:14:30.346Z,15.38
2023-03-13T12:17:02.636Z,15.27
2023-03-13T12:19:38.534Z,15.32
2023-03-13T12:22:16.634Z,15.37
2023-03-13T12:24:53.151Z,15.33
2023-03-13T12:27:33.598Z,15.24
2023-03-13T12:30:07.917Z,15.40
2023-03-13T12:32:42.449Z,15.23
2023-03-13T12:35:22.945Z,14.85
2023-03-13T12:37:59.353Z,14.98
2023-03-13T12:40:36.445Z,15.00
2023-03-13T12:43:11.964Z,14.97
2023-03-13T12:46:02.331Z,15.19
2023-03-13T12:48:53.991Z,15.12
2023-03-13T12:51:44.287Z,15.05
2023-03-13T12:54:41.492Z,15.22
2023-03-13T12:57:23.463Z,14.85
2023-03-13T13:00:00.230Z,15.19
2023-03-13T13:02:32.073Z,15.12
2023-03-13T13:05:03.716Z,14.63
2023-03-13T13:07:36.797Z,15.08
2023-03-13T13:10:22.090Z,15.19
2023-03-13T13:13:19.785Z,15.22
2023-03-13T13:16:00.474Z,15.13
2023-03-13T13:18:31.193Z,15.22
2023-03-13T13:21:27.849Z,14.72
2023-03-13T13:24:37.273Z,14.91
2023-03-13T13:27:27.893Z,13.91
2023-03-13T13:29:58.402Z,14.75
2023-03-13T13:32:53.028Z,14.74
2023-03-13T13:35:28.863Z,15.01
2023-03-13T13:38:40.938Z,15.02
2023-03-13T13:41:39.500Z,14.73
2023-03-13T13:44:35.525Z,14.90
2023-03-13T13:47:05.443Z,14.83
2023-03-13T13:49:38.022Z,14.81
2023-03-13T13:52:37.028Z,14.60
2023-03-13T13:55:33.162Z,14.52
2023-03-13T13:58:07.293Z,14.64
2023-03-13T14:00:43.146Z,13.71
2023-03-13T14:03:23.264Z,14.30
2023-03-13T14:05:58.164Z,14.28
2023-03-13T14:08:32.556Z,14.23
2023-03-13T14:11:30.542Z,14.39
2023-03-13T14:14:16.972Z,14.23
2023-03-13T14:16:50.844Z,14.32
2023-03-13T14:19:26.191Z,14.20
2023-03-13T14:22:07.514Z,14.38
2023-03-13T14:24:37.443Z,14.45
2023-03-13T14:27:17.634Z,14.41
2023-03-13T14:30:03.835Z,13.46
2023-03-13T14:32:33.218Z,14.27
2023-03-13T14:35:02.858Z,14.30
2023-03-13T14:37:36.779Z,14.10
2023-03-13T14:40:13.015Z,14.25
2023-03-13T14:42:48.095Z,14.23
2023-03-13T14:45:23.780Z,14.16
2023-03-13T14:47:54.662Z,14.23
2023-03-13T14:50:26.499Z,13.14
2023-03-13T14:52:59.895Z,14.13
2023-03-13T14:55:34.856Z,14.19
2023-03-13T14:58:07.460Z,14.26
2023-03-13T15:00:40.451Z,13.94
2023-03-13T15:03:30.682Z,14.15
2023-03-13T15:06:21.186Z,14.11
2023-03-13T15:09:09.415Z,14.14
2023-03-13T15:11:42.596Z,14.14
2023-03-13T15:14:34.805Z,13.84
2023-03-13T15:17:14.473Z,13.84
2023-03-13T15:19:44.220Z,12.85
2023-03-13T15:22:16.245Z,13.60
2023-03-13T15:24:59.541Z,14.07
2023-03-13T15:27:35.908Z,13.74
2023-03-13T15:30:06.875Z,13.75
2023-03-13T15:32:39.523Z,13.77
2023-03-13T15:35:24.092Z,13.70
2023-03-13T15:37:54.023Z,13.54
2023-03-13T15:40:25.571Z,13.52
2023-03-13T15:42:56.349Z,13.73
2023-03-13T15:45:25.749Z,13.46
2023-03-13T15:47:57.876Z,13.48
2023-03-13T15:50:31.605Z,13.52
2023-03-13T15:53:04.152Z,13.47
2023-03-13T15:55:34.058Z,13.38
2023-03-13T15:58:06.796Z,13.47
2023-03-13T16:00:36.584Z,13.23
2023-03-13T16:03:08.040Z,13.12
2023-03-13T16:05:37.733Z,13.31
2023-03-13T16:08:07.519Z,13.25
2023-03-13T16:10:36.469Z,13.28
2023-03-13T16:13:05.836Z,13.26
2023-03-13T16:15:34.910Z,13.23
2023-03-13T16:18:05.051Z,12.90
2023-03-13T16:20:36.379Z,13.07
2023-03-13T16:23:08.324Z,13.17
2023-03-13T16:25:40.960Z,13.22
2023-03-13T16:28:13.338Z,11.91
2023-03-13T16:30:47.417Z,12.97
2023-03-13T16:33:17.352Z,13.02
2023-03-13T16:35:52.293Z,13.02
2023-03-13T16:38:22.512Z,13.15
2023-03-13T16:40:52.692Z,13.08
2023-03-13T16:43:22.296Z,12.93
2023-03-13T16:45:52.395Z,12.91
2023-03-13T16:48:24.056Z,12.85
2023-03-13T16:50:54.718Z,12.81
2023-03-13T16:53:23.928Z,12.86
2023-03-13T16:55:55.904Z,12.88
2023-03-13T16:58:27.659Z,12.77
2023-03-13T17:03:47.456Z,12.65
2023-03-13T17:06:21.898Z,12.31
2023-03-13T17:08:51.579Z,12.18
2023-03-13T17:11:22.838Z,12.37
2023-03-13T17:13:55.290Z,12.52
2023-03-13T17:16:26.109Z,12.09
2023-03-13T17:18:55.984Z,12.51
2023-03-13T17:21:29.058Z,12.34
2023-03-13T17:24:00.224Z,12.28
2023-03-13T17:26:31.364Z,12.35
2023-03-13T17:29:01.130Z,12.33
2023-03-13T17:31:37.168Z,12.19
2023-03-13T17:34:07.321Z,12.22
2023-03-13T17:36:38.563Z,11.76
2023-03-13T17:39:09.595Z,11.90
2023-03-13T17:41:39.389Z,12.15
2023-03-13T17:44:08.396Z,12.02
2023-03-13T17:46:41.704Z,11.84
2023-03-13T17:49:13.157Z,11.92
2023-03-13T17:51:46.519Z,11.29
2023-03-13T17:54:16.196Z,11.79
2023-03-13T17:56:46.093Z,11.36
2023-03-13T17:59:17.750Z,11.75
2023-03-13T18:01:47.865Z,11.71
2023-03-13T18:04:17.153Z,11.59
2023-03-13T18:06:50.244Z,11.57
2023-03-13T18:09:22.962Z,11.81
2023-03-13T18:11:52.460Z,11.85
2023-03-13T18:14:21.589Z,11.77
2023-03-13T18:16:57.453Z,11.90
2023-03-13T18:19:28.202Z,11.44
2023-03-13T18:22:00.179Z,11.65
2023-03-13T18:24:30.641Z,11.47
2023-03-13T18:27:00.442Z,11.24
2023-03-13T18:29:30.052Z,11.20
2023-03-13T18:32:02.029Z,11.32
2023-03-13T18:34:31.740Z,11.24
2023-03-13T18:37:04.265Z,11.17
2023-03-13T18:39:34.126Z,10.98
2023-03-13T18:42:03.534Z,10.79
2023-03-13T18:44:33.129Z,10.90
2023-03-13T18:47:03.051Z,10.90
2023-03-13T18:49:32.439Z,10.94
2023-03-13T18:52:03.271Z,10.22
2023-03-13T18:54:32.573Z,10.99
2023-03-13T18:57:01.986Z,11.01
2023-03-13T18:59:31.350Z,11.13
2023-03-13T19:02:01.308Z,11.50
2023-03-13T19:04:31.416Z,11.18
2023-03-13T19:07:04.991Z,11.28
2023-03-13T19:09:49.499Z,11.20
2023-03-13T19:12:18.625Z,11.34
2023-03-13T19:14:48.254Z,11.22
2023-03-13T19:17:23.125Z,11.28
2023-03-13T19:19:57.360Z,11.08
2023-03-13T19:22:28.222Z,10.96
2023-03-13T19:24:58.276Z,11.02
2023-03-13T19:27:27.843Z,9.92
2023-03-13T19:29:57.661Z,10.82
2023-03-13T19:32:30.492Z,10.82
2023-03-13T19:35:00.999Z,10.71
2023-03-13T19:37:31.901Z,10.65
2023-03-13T19:40:01.759Z,10.60
2023-03-13T19:42:30.751Z,10.50
2023-03-13T19:45:02.941Z,10.60
2023-03-13T19:47:31.973Z,10.40
2023-03-13T19:50:01.857Z,10.41
2023-03-13T19:52:32.272Z,10.38
2023-03-13T19:55:05.100Z,8.91
2023-03-13T19:57:34.833Z,10.22
2023-03-13T20:00:06.053Z,10.40
2023-03-13T20:02:42.722Z,10.41
2023-03-13T20:05:15.659Z,10.47
2023-03-13T20:07:48.353Z,10.18
2023-03-13T20:10:18.168Z,10.18
2023-03-13T20:12:48.760Z,10.43
2023-03-13T20:15:18.304Z,10.26
2023-03-13T20:17:50.093Z,10.44
2023-03-13T20:20:20.081Z,10.37
2023-03-13T20:22:50.734Z,10.37
2023-03-13T20:25:20.718Z,10.60
2023-03-13T20:27:50.581Z,10.41
2023-03-13T20:30:20.284Z,10.46
2023-03-13T20:32:59.175Z,10.50
2023-03-13T20:35:29.874Z,10.32
2023-03-13T20:38:01.926Z,10.30
2023-03-13T20:40:31.089Z,10.35
2023-03-13T20:43:00.855Z,10.32
2023-03-13T20:45:31.170Z,10.22
2023-03-13T20:48:02.925Z,10.06
2023-03-13T20:50:32.780Z,10.20
2023-03-13T20:53:03.768Z,9.93
2023-03-13T20:55:38.056Z,10.13
2023-03-13T20:58:07.109Z,10.09
2023-03-13T21:00:36.874Z,10.09
2023-03-13T21:03:06.432Z,10.14
2023-03-13T21:05:39.682Z,10.11
2023-03-13T21:08:10.093Z,10.14
2023-03-13T21:10:39.567Z,10.05
2023-03-13T21:13:11.623Z,10.00
2023-03-13T21:15:41.188Z,10.05
2023-03-13T21:18:10.282Z,10.05
2023-03-13T21:20:41.198Z,10.10
2023-03-13T21:23:11.523Z,9.95
2023-03-13T21:25:41.284Z,10.10
2023-03-13T21:28:11.069Z,10.21
2023-03-13T21:30:40.175Z,9.90
2023-03-13T21:33:12.197Z,10.23
2023-03-13T21:36:11.546Z,10.17
2023-03-13T21:38:50.819Z,9.95
2023-03-13T21:41:23.449Z,9.93
2023-03-13T21:43:53.047Z,9.82
2023-03-13T21:46:23.759Z,9.84
2023-03-13T21:48:53.074Z,9.87
2023-03-13T21:51:22.593Z,9.92
2023-03-13T21:53:53.112Z,9.87
2023-03-13T21:56:23.007Z,9.81
2023-03-13T21:58:52.412Z,9.21
2023-03-13T22:01:22.191Z,9.86
2023-03-13T22:03:51.814Z,9.89
2023-03-13T22:06:22.720Z,9.90
2023-03-13T22:08:54.237Z,9.94
2023-03-13T22:11:24.081Z,9.96
2023-03-13T22:13:54.064Z,9.87
2023-03-13T22:16:25.513Z,9.91
2023-03-13T22:18:55.838Z,9.94
2023-03-13T22:21:28.066Z,9.78
2023-03-13T22:23:59.456Z,9.77
2023-03-13T22:26:28.519Z,9.93
2023-03-13T22:28:58.022Z,9.91
2023-03-13T22:31:27.654Z,9.93
2023-03-13T22:34:00.259Z,10.02
2023-03-13T22:36:30.490Z,10.07
2023-03-13T22:39:01.703Z,10.04
2023-03-13T22:41:31.600Z,10.07
2023-03-13T22:44:01.182Z,9.22
2023-03-13T22:46:30.733Z,10.00
2023-03-13T22:49:00.674Z,10.08
2023-03-13T22:51:30.645Z,10.37
2023-03-13T22:54:01.764Z,10.28
2023-03-13T22:56:31.638Z,10.57
2023-03-13T22:59:02.802Z,10.52
2023-03-13T23:01:32.829Z,10.75
2023-03-13T23:04:02.603Z,10.72
2023-03-13T23:06:32.179Z,10.83
2023-03-13T23:09:03.653Z,10.83
2023-03-13T23:11:33.464Z,10.71
2023-03-13T23:14:02.897Z,10.71
2023-03-13T23:16:33.283Z,10.31
2023-03-13T23:19:04.213Z,10.37
2023-03-13T23:21:34.352Z,10.51
2023-03-13T23:24:06.071Z,10.24
2023-03-13T23:26:35.762Z,10.43
2023-03-13T23:29:05.287Z,9.82
2023-03-13T23:31:35.124Z,10.66
2023-03-13T23:34:04.882Z,9.59
2023-03-13T23:36:34.633Z,10.32
2023-03-13T23:39:06.112Z,10.31
2023-03-13T23:41:35.944Z,10.39
2023-03-13T23:44:05.824Z,10.04
2023-03-13T23:46:36.562Z,10.21
2023-03-13T23:49:07.196Z,10.48
2023-03-13T23:51:38.936Z,10.37
2023-03-13T23:54:09.941Z,10.29
2023-03-13T23:56:39.950Z,10.39
2023-03-13T23:59:09.955Z,10.42
